41.3°F
Current conditions from King Hill
Updated every 5 minutes
 
  Friday April 25, 2014

Station Historical Data
Daily Summary for April 14, 2012 Units:  Metric    English   Both
« Previous Day
Next Day »
Daily Weekly Monthly Yearly Custom
  High: Low: Average:
Temperature: 18.2 °C 2.5 °C 10.9 °C
Dew Point: 1.6 °C -6.6 °C -2.8 °C
Humidity: 66% 18% 41%
Wind Speed: 14.5km/h 1.6km/h 6km/h
Wind Gust: 24.1km/h - -
Wind- - WSW
Pressure: 1018.5 hPa 1012.1 hPa -
Precipitation: 0 mm    
Historical Graphs
 
 
Tabular Data for April 14, 2012
Time Temperature Dew Point Pressure Wind Wind Speed Wind Gust Humidity Daily Rainfall
00:05 7.2 °C -2.6 °C 1017.2 hPa WSW 6.4 km/h 14.5 km/h 50% 0 mm
00:10 7 °C -2.7 °C 1017.2 hPa WSW 6.4 km/h 12.9 km/h 50% 0 mm
00:15 7 °C -2.4 °C 1017.2 hPa WSW 3.2 km/h 12.9 km/h 51% 0 mm
00:20 7.1 °C -2.6 °C 1017.2 hPa WSW 9.7 km/h 19.3 km/h 50% 0 mm
00:25 7.3 °C -2.7 °C 1017.2 hPa West 8 km/h 22.5 km/h 49% 0 mm
00:30 7.4 °C -2.6 °C 1017.2 hPa WSW 11.3 km/h 22.5 km/h 49% 0 mm
00:35 7.4 °C -2.6 °C 1017.2 hPa West 4.8 km/h 17.7 km/h 49% 0 mm
00:40 7.3 °C -2.4 °C 1017.2 hPa West 6.4 km/h 17.7 km/h 50% 0 mm
00:45 7.2 °C -2.6 °C 1017.2 hPa West 9.7 km/h 16.1 km/h 50% 0 mm
00:55 7.2 °C -2.5 °C 1017.2 hPa West 6.4 km/h 16.1 km/h 50% 0 mm
01:00 7.1 °C -2.7 °C 1017.2 hPa WSW 3.2 km/h 12.9 km/h 50% 0 mm
01:05 6.8 °C -2.6 °C 1017.2 hPa West 4.8 km/h 14.5 km/h 51% 0 mm
01:10 6.7 °C -2.7 °C 1017.2 hPa West 1.6 km/h 14.5 km/h 51% 0 mm
01:15 6.4 °C -2.7 °C 1017.2 hPa West 3.2 km/h 12.9 km/h 52% 0 mm
01:20 6.3 °C -2.6 °C 1017.2 hPa West 4.8 km/h 9.7 km/h 53% 0 mm
01:25 6.3 °C -2.6 °C 1017.2 hPa West 3.2 km/h 9.7 km/h 53% 0 mm
01:30 6.3 °C -2.6 °C 1017.2 hPa West 4.8 km/h 11.3 km/h 53% 0 mm
01:35 6.4 °C -2.7 °C 1017.2 hPa West 11.3 km/h 17.7 km/h 52% 0 mm
01:45 6.7 °C -2.7 °C 1016.8 hPa West 6.4 km/h 12.9 km/h 51% 0 mm
01:55 6.2 °C -2.9 °C 1017.2 hPa West 4.8 km/h 12.9 km/h 52% 0 mm
02:00 6.5 °C -2.7 °C 1016.8 hPa West 8 km/h 14.5 km/h 52% 0 mm
02:05 6.7 °C -2.8 °C 1016.8 hPa West 4.8 km/h 14.5 km/h 51% 0 mm
02:10 6.6 °C -2.9 °C 1016.8 hPa West 4.8 km/h 11.3 km/h 51% 0 mm
02:20 6.5 °C -2.9 °C 1016.8 hPa West 6.4 km/h 14.5 km/h 51% 0 mm
02:25 6.4 °C -2.8 °C 1016.8 hPa West 1.6 km/h 14.5 km/h 52% 0 mm
02:30 6.2 °C -2.9 °C 1016.8 hPa West 1.6 km/h 9.7 km/h 52% 0 mm
02:35 6.1 °C -3.1 °C 1016.8 hPa West 1.6 km/h 9.7 km/h 52% 0 mm
02:40 6 °C -3.1 °C 1016.8 hPa Calm   9.7 km/h 52% 0 mm
02:45 5.9 °C -3.2 °C 1016.8 hPa Calm   9.7 km/h 52% 0 mm
02:55 5.8 °C -3 °C 1016.8 hPa Calm   4.8 km/h 53% 0 mm
03:00 5.9 °C -3.2 °C 1016.8 hPa Calm   3.2 km/h 52% 0 mm
03:05 5.8 °C -2.6 °C 1016.8 hPa Calm   3.2 km/h 55% 0 mm
03:10 5.4 °C -2.4 °C 1016.8 hPa Calm     57% 0 mm
03:15 4.9 °C -2.9 °C 1016.8 hPa Calm     57% 0 mm
03:20 4.1 °C -3.2 °C 1016.8 hPa Calm   4.8 km/h 59% 0 mm
03:25 3.9 °C -3.3 °C 1016.8 hPa Calm   4.8 km/h 59% 0 mm
03:35 3.8 °C -3.3 °C 1016.8 hPa Calm   4.8 km/h 60% 0 mm
03:45 3.3 °C -3.3 °C 1016.8 hPa West 4.8 km/h 8 km/h 62% 0 mm
03:55 3.8 °C -3 °C 1016.8 hPa SSW 4.8 km/h 9.7 km/h 61% 0 mm
04:00 4.5 °C -2.8 °C 1016.8 hPa SSW 3.2 km/h 9.7 km/h 59% 0 mm
04:05 4.3 °C -3 °C 1016.8 hPa Calm   8 km/h 59% 0 mm
04:10 4.2 °C -2.8 °C 1016.8 hPa Calm   6.4 km/h 60% 0 mm
04:15 3.9 °C -3.1 °C 1016.8 hPa SSW 1.6 km/h 6.4 km/h 60% 0 mm
04:20 3.6 °C -3.1 °C 1017.2 hPa Calm   6.4 km/h 62% 0 mm
04:25 3.2 °C -3.2 °C 1017.2 hPa Calm   6.4 km/h 63% 0 mm
04:30 2.9 °C -3.2 °C 1017.2 hPa SSW 1.6 km/h 6.4 km/h 64% 0 mm
04:35 3.1 °C -3.1 °C 1017.2 hPa SSW 3.2 km/h 8 km/h 64% 0 mm
04:40 3.2 °C -3.2 °C 1017.2 hPa Calm   8 km/h 63% 0 mm
04:45 3.2 °C -2.9 °C 1017.2 hPa Calm   4.8 km/h 64% 0 mm
04:50 3 °C -3.2 °C 1017.2 hPa SSW 3.2 km/h 6.4 km/h 64% 0 mm
04:55 3.4 °C -2.9 °C 1017.2 hPa SSW 1.6 km/h 6.4 km/h 63% 0 mm
05:00 4.1 °C -2.8 °C 1017.2 hPa SSW 3.2 km/h 9.7 km/h 61% 0 mm
05:05 4.3 °C -3 °C 1017.2 hPa SSW 1.6 km/h 9.7 km/h 59% 0 mm
05:10 4.4 °C -2.9 °C 1017.2 hPa SSW 3.2 km/h 9.7 km/h 59% 0 mm
05:15 4.4 °C -3.1 °C 1017.2 hPa Calm   9.7 km/h 58% 0 mm
05:20 4.3 °C -3.1 °C 1017.2 hPa Calm   8 km/h 59% 0 mm
05:25 3.9 °C -3.2 °C 1017.2 hPa Calm   4.8 km/h 60% 0 mm
05:35 3.3 °C -3.3 °C 1017.2 hPa SSW 1.6 km/h 9.7 km/h 62% 0 mm
05:40 2.9 °C -3.4 °C 1017.2 hPa Calm   8 km/h 63% 0 mm
05:45 2.7 °C -3.3 °C 1017.2 hPa Calm   9.7 km/h 65% 0 mm
05:50 2.7 °C -3.3 °C 1017.5 hPa Calm   9.7 km/h 65% 0 mm
05:55 2.5 °C -3.2 °C 1017.5 hPa Calm   6.4 km/h 66% 0 mm
06:00 2.7 °C -3.3 °C 1017.2 hPa Calm   6.4 km/h 65% 0 mm
06:05 2.8 °C -3.1 °C 1017.2 hPa Calm   4.8 km/h 65% 0 mm
06:10 2.9 °C -3.1 °C 1017.2 hPa SSW 1.6 km/h 4.8 km/h 65% 0 mm
06:20 2.9 °C -3.3 °C 1017.5 hPa Calm   4.8 km/h 64% 0 mm
06:25 2.9 °C -3.1 °C 1017.5 hPa Calm   8 km/h 65% 0 mm
06:35 2.9 °C -3 °C 1017.5 hPa Calm   4.8 km/h 65% 0 mm
06:40 2.9 °C -3 °C 1017.5 hPa Calm   4.8 km/h 65% 0 mm
06:50 3.5 °C -2.9 °C 1017.5 hPa SSW 3.2 km/h 9.7 km/h 63% 0 mm
06:55 3.8 °C -2.8 °C 1017.8 hPa SSW 1.6 km/h 8 km/h 62% 0 mm
07:05 4.3 °C -2.6 °C 1017.8 hPa SSW 3.2 km/h 11.3 km/h 61% 0 mm
07:10 4.4 °C -2.7 °C 1017.8 hPa SSW 1.6 km/h 9.7 km/h 60% 0 mm
07:15 4.5 °C -2.8 °C 1018.2 hPa SSW 1.6 km/h 9.7 km/h 59% 0 mm
07:20 4.6 °C -2.7 °C 1018.2 hPa SSW 3.2 km/h 9.7 km/h 59% 0 mm
07:25 4.8 °C -2.5 °C 1018.2 hPa SSW 3.2 km/h 11.3 km/h 59% 0 mm
07:35 5.7 °C -2.2 °C 1018.2 hPa SW 6.4 km/h 11.3 km/h 57% 0 mm
07:40 6 °C -2.3 °C 1018.5 hPa SSW 4.8 km/h 11.3 km/h 55% 0 mm
07:45 6.2 °C -2.2 °C 1018.2 hPa SSW 4.8 km/h 14.5 km/h 55% 0 mm
07:50 6.4 °C -2.2 °C 1018.5 hPa SSW 6.4 km/h 14.5 km/h 54% 0 mm
07:55 6.6 °C -2.1 °C 1018.5 hPa SSW 3.2 km/h 12.9 km/h 54% 0 mm
08:00 6.9 °C -2 °C 1018.5 hPa SSW 3.2 km/h 11.3 km/h 53% 0 mm
08:05 7.2 °C -2.2 °C 1018.5 hPa SSW 8 km/h 14.5 km/h 51% 0 mm
08:10 7.6 °C -1.9 °C 1018.5 hPa SSW 3.2 km/h 14.5 km/h 51% 0 mm
08:15 7.9 °C -1.6 °C 1018.5 hPa SSW 4.8 km/h 11.3 km/h 51% 0 mm
08:20 8.2 °C -1.7 °C 1018.5 hPa SW 1.6 km/h 12.9 km/h 50% 0 mm
08:25 8.3 °C -1.8 °C 1018.5 hPa SSW 3.2 km/h 17.7 km/h 49% 0 mm
08:30 8.6 °C -1.8 °C 1018.5 hPa SW 8 km/h 17.7 km/h 48% 0 mm
08:35 8.8 °C -1.6 °C 1018.5 hPa SW 8 km/h 17.7 km/h 48% 0 mm
08:40 9.1 °C -1.7 °C 1018.5 hPa SSW 6.4 km/h 20.9 km/h 47% 0 mm
08:50 9.6 °C -1.8 °C 1018.2 hPa South 9.7 km/h 19.3 km/h 45% 0 mm
08:55 9.8 °C -1.6 °C 1018.2 hPa SSW 6.4 km/h 19.3 km/h 45% 0 mm
09:00 10.1 °C -1.3 °C 1018.2 hPa SSW 9.7 km/h 17.7 km/h 45% 0 mm
09:10 10.6 °C -1.5 °C 1018.2 hPa SSW 4.8 km/h 17.7 km/h 43% 0 mm
09:20 11 °C -1.1 °C 1018.2 hPa SSW 6.4 km/h 16.1 km/h 43% 0 mm
09:25 11.3 °C -1.2 °C 1018.2 hPa South 4.8 km/h 16.1 km/h 42% 0 mm
09:30 11.4 °C -1.3 °C 1018.2 hPa SSW 4.8 km/h 14.5 km/h 41% 0 mm
09:40 11.9 °C -1.6 °C 1018.2 hPa South 6.4 km/h 12.9 km/h 39% 0 mm
09:45 12 °C -1.9 °C 1018.2 hPa SW 1.6 km/h 12.9 km/h 38% 0 mm
09:50 12.1 °C -1.8 °C 1018.2 hPa SW 14.5 km/h 22.5 km/h 38% 0 mm
10:00 12.3 °C -1.9 °C 1018.2 hPa SSW 6.4 km/h 17.7 km/h 37% 0 mm
10:10 12.8 °C -2.3 °C 1018.2 hPa SW 9.7 km/h 17.7 km/h 35% 0 mm
10:20 12.8 °C -2.7 °C 1017.8 hPa WSW 8 km/h 22.5 km/h 34% 0 mm
10:30 13 °C -2.5 °C 1017.8 hPa SW 9.7 km/h 19.3 km/h 34% 0 mm
10:35 13.2 °C -2.3 °C 1017.8 hPa West 8 km/h 19.3 km/h 34% 0 mm
10:45 13.7 °C -2.7 °C 1017.8 hPa WNW 9.7 km/h 19.3 km/h 32% 0 mm
10:55 13.8 °C -2.6 °C 1017.5 hPa SW 6.4 km/h 17.7 km/h 32% 0 mm
11:00 13.8 °C -3.4 °C 1017.5 hPa West 11.3 km/h 19.3 km/h 30% 0 mm
11:05 13.8 °C -2.2 °C 1017.5 hPa WNW 3.2 km/h 19.3 km/h 33% 0 mm
11:10 14.3 °C -3 °C 1017.2 hPa WSW 4.8 km/h 19.3 km/h 30% 0 mm
11:15 14.6 °C -4.2 °C 1017.2 hPa West 9.7 km/h 17.7 km/h 27% 0 mm
11:20 14.7 °C -2.7 °C 1017.2 hPa West 4.8 km/h 17.7 km/h 30% 0 mm
11:25 14.8 °C -3.1 °C 1017.2 hPa SW 1.6 km/h 14.5 km/h 29% 0 mm
11:30 15 °C -2.9 °C 1017.2 hPa SSW 6.4 km/h 16.1 km/h 29% 0 mm
11:35 15 °C -2.9 °C 1016.8 hPa SW 4.8 km/h 16.1 km/h 29% 0 mm
11:40 15 °C -2.9 °C 1016.8 hPa WNW 11.3 km/h 17.7 km/h 29% 0 mm
11:50 15.2 °C -2.2 °C 1016.8 hPa WNW 6.4 km/h 20.9 km/h 30% 0 mm
11:55 15.6 °C -1.9 °C 1016.5 hPa SW 8 km/h 20.9 km/h 30% 0 mm
12:00 15.6 °C -3.9 °C 1016.5 hPa WSW 9.7 km/h 17.7 km/h 26% 0 mm
12:05 15.6 °C -2.8 °C 1016.5 hPa SW 4.8 km/h 17.7 km/h 28% 0 mm
12:10 15.9 °C -2.6 °C 1016.1 hPa WNW 11.3 km/h 22.5 km/h 28% 0 mm
12:15 15.9 °C -2.6 °C 1016.1 hPa WSW 11.3 km/h 22.5 km/h 28% 0 mm
12:20 15.8 °C -3.1 °C 1016.1 hPa Calm   20.9 km/h 27% 0 mm
12:30 16.1 °C -2.4 °C 1015.8 hPa SSW 11.3 km/h 16.1 km/h 28% 0 mm
12:35 15.8 °C -2.2 °C 1015.8 hPa WSW 3.2 km/h 14.5 km/h 29% 0 mm
12:40 15.9 °C -2.1 °C 1015.8 hPa WSW 6.4 km/h 14.5 km/h 29% 0 mm
12:45 15.9 °C -2.6 °C 1015.8 hPa SSW 9.7 km/h 16.1 km/h 28% 0 mm
12:50 16.1 °C -2.4 °C 1015.5 hPa NW 6.4 km/h 16.1 km/h 28% 0 mm
13:00 16.6 °C -1.5 °C 1015.5 hPa SSE 1.6 km/h 9.7 km/h 29% 0 mm
13:10 16.7 °C -2.4 °C 1015.1 hPa WSW 9.7 km/h 19.3 km/h 27% 0 mm
13:15 16.6 °C -2.4 °C 1015.1 hPa WSW 8 km/h 19.3 km/h 27% 0 mm
13:25 16.4 °C -3.7 °C 1015.1 hPa WNW 4.8 km/h 14.5 km/h 25% 0 mm
13:30 16.4 °C -3.7 °C 1015.1 hPa SSW 1.6 km/h 19.3 km/h 25% 0 mm
13:35 16.4 °C -3.7 °C 1015.5 hPa SW 9.7 km/h 19.3 km/h 25% 0 mm
13:40 16.4 °C -4.2 °C 1015.1 hPa SW 12.9 km/h 20.9 km/h 24% 0 mm
13:45 16.1 °C -4.4 °C 1015.1 hPa WSW 9.7 km/h 20.9 km/h 24% 0 mm
13:50 15.8 °C -3.7 °C 1015.1 hPa West 4.8 km/h 16.1 km/h 26% 0 mm
13:55 16.3 °C -3.3 °C 1015.5 hPa WSW 6.4 km/h 14.5 km/h 26% 0 mm
14:00 16.7 °C -4.5 °C 1015.1 hPa SW 4.8 km/h 14.5 km/h 23% 0 mm
14:05 17.1 °C -5.4 °C 1015.1 hPa NW 11.3 km/h 17.7 km/h 21% 0 mm
14:15 16.9 °C -4.9 °C 1015.1 hPa WNW 9.7 km/h 17.7 km/h 22% 0 mm
14:20 16.8 °C -5.7 °C 1015.1 hPa WNW 12.9 km/h 20.9 km/h 21% 0 mm
14:25 16.9 °C -4.9 °C 1015.1 hPa WSW 9.7 km/h 20.9 km/h 22% 0 mm
14:30 17.2 °C -4.1 °C 1015.1 hPa West 4.8 km/h 19.3 km/h 23% 0 mm
14:40 17.3 °C -4.6 °C 1014.8 hPa West 11.3 km/h 19.3 km/h 22% 0 mm
14:45 17.3 °C -5.3 °C 1014.8 hPa WSW 8 km/h 19.3 km/h 21% 0 mm
14:55 17.1 °C -4.8 °C 1014.4 hPa Calm   16.1 km/h 22% 0 mm
15:00 17 °C -5.5 °C 1014.4 hPa WSW 6.4 km/h 14.5 km/h 21% 0 mm
15:05 16.7 °C -6.4 °C 1014.1 hPa South 6.4 km/h 16.1 km/h 20% 0 mm
15:10 16.5 °C -4.7 °C 1014.1 hPa West 1.6 km/h 16.1 km/h 23% 0 mm
15:15 16.6 °C -5.2 °C 1014.1 hPa WSW 1.6 km/h 11.3 km/h 22% 0 mm
15:25 16.5 °C -4.7 °C 1013.8 hPa Calm   9.7 km/h 23% 0 mm
15:30 16.7 °C -4 °C 1013.8 hPa West 1.6 km/h 9.7 km/h 24% 0 mm
15:35 16.6 °C -4.7 °C 1013.4 hPa WSW 4.8 km/h 12.9 km/h 23% 0 mm
15:40 16.7 °C -4 °C 1013.4 hPa SSW 1.6 km/h 12.9 km/h 24% 0 mm
15:45 16.8 °C -4.4 °C 1013.4 hPa SW 3.2 km/h 12.9 km/h 23% 0 mm
15:50 16.7 °C -4.6 °C 1013.4 hPa SW 3.2 km/h 14.5 km/h 23% 0 mm
16:00 16.6 °C -4.1 °C 1013.4 hPa SW 1.6 km/h 12.9 km/h 24% 0 mm
16:05 16.6 °C -3 °C 1013.1 hPa WNW 3.2 km/h 11.3 km/h 26% 0 mm
16:10 16.5 °C -4.7 °C 1013.1 hPa West 6.4 km/h 11.3 km/h 23% 0 mm
16:15 16.4 °C -4.2 °C 1013.1 hPa WSW 1.6 km/h 11.3 km/h 24% 0 mm
16:20 16.3 °C -4.3 °C 1012.8 hPa Calm   11.3 km/h 24% 0 mm
16:25 16.3 °C -4.3 °C 1012.8 hPa SW 11.3 km/h 19.3 km/h 24% 0 mm
16:30 16.3 °C -2.7 °C 1012.8 hPa Calm   19.3 km/h 27% 0 mm
16:40 17.4 °C -3.9 °C 1012.8 hPa WSW 1.6 km/h 17.7 km/h 23% 0 mm
16:50 18 °C -4.7 °C 1012.8 hPa SW 8 km/h 14.5 km/h 21% 0 mm
16:55 18.2 °C -4.5 °C 1012.8 hPa West 9.7 km/h 20.9 km/h 21% 0 mm
17:00 18.2 °C -4.4 °C 1012.8 hPa WSW 9.7 km/h 20.9 km/h 21% 0 mm
17:05 18.2 °C -3.9 °C 1012.8 hPa West 9.7 km/h 19.3 km/h 22% 0 mm
17:10 18.2 °C -5.8 °C 1012.8 hPa West 8 km/h 22.5 km/h 19% 0 mm
17:15 18.2 °C -5.8 °C 1012.8 hPa WNW 9.7 km/h 22.5 km/h 19% 0 mm
17:20 18.2 °C -6.6 °C 1012.8 hPa WSW 12.9 km/h 17.7 km/h 18% 0 mm
17:25 18 °C -6 °C 1012.8 hPa West 11.3 km/h 24.1 km/h 19% 0 mm
17:30 17.7 °C -6.2 °C 1012.8 hPa SW 9.7 km/h 24.1 km/h 19% 0 mm
17:35 17.3 °C -5.2 °C 1012.8 hPa Calm   17.7 km/h 21% 0 mm
17:45 17.6 °C -6.3 °C 1013.1 hPa WNW 12.9 km/h 17.7 km/h 19% 0 mm
17:50 17.6 °C -5.7 °C 1012.8 hPa WNW 8 km/h 20.9 km/h 20% 0 mm
18:00 17.4 °C -5.2 °C 1012.8 hPa WSW 9.7 km/h 17.7 km/h 21% 0 mm
18:05 17.2 °C -6 °C 1012.8 hPa West 9.7 km/h 17.7 km/h 20% 0 mm
18:10 17 °C -5.5 °C 1012.8 hPa WSW 6.4 km/h 17.7 km/h 21% 0 mm
18:15 16.6 °C -5.8 °C 1013.1 hPa WNW 8 km/h 16.1 km/h 21% 0 mm
18:20 16.3 °C -5.4 °C 1013.1 hPa WNW 8 km/h 14.5 km/h 22% 0 mm
18:25 15.9 °C -5.2 °C 1013.1 hPa West 3.2 km/h 14.5 km/h 23% 0 mm
18:30 15.6 °C -5.4 °C 1013.1 hPa West 4.8 km/h 12.9 km/h 23% 0 mm
18:40 15 °C -4.3 °C 1013.1 hPa Calm   4.8 km/h 26% 0 mm
18:45 14.8 °C -5.1 °C 1013.1 hPa Calm   1.6 km/h 25% 0 mm
18:50 14.7 °C -5.1 °C 1013.1 hPa West 3.2 km/h 9.7 km/h 25% 0 mm
18:55 14.6 °C -4.2 °C 1013.1 hPa Calm   9.7 km/h 27% 0 mm
19:00 14.4 °C -4.3 °C 1013.1 hPa Calm     27% 0 mm
19:10 14.1 °C -4.7 °C 1013.1 hPa Calm     27% 0 mm
19:15 13.9 °C -3.3 °C 1013.1 hPa Calm     30% 0 mm
19:20 13.6 °C -1.9 °C 1013.1 hPa Calm     34% 0 mm
19:25 13.3 °C -1.4 °C 1013.1 hPa Calm     36% 0 mm
19:30 13.1 °C -2.8 °C 1013.1 hPa Calm     33% 0 mm
19:35 13.1 °C -1.3 °C 1013.1 hPa Calm     37% 0 mm
19:45 12.7 °C -2.8 °C 1013.1 hPa Calm     34% 0 mm
19:55 12.5 °C -1.4 °C 1013.1 hPa Calm     38% 0 mm
20:00 12.6 °C -2.9 °C 1013.1 hPa Calm   4.8 km/h 34% 0 mm
20:05 12.6 °C -2.9 °C 1013.4 hPa Calm   4.8 km/h 34% 0 mm
20:10 12.6 °C -2.4 °C 1013.4 hPa Calm     35% 0 mm
20:20 12.6 °C -2.9 °C 1013.4 hPa Calm   4.8 km/h 34% 0 mm
20:30 12.6 °C -2.1 °C 1013.4 hPa Calm   1.6 km/h 36% 0 mm
20:35 12.6 °C -3.3 °C 1013.4 hPa Calm     33% 0 mm
20:40 12.4 °C -1.5 °C 1013.4 hPa Calm     38% 0 mm
20:45 12.2 °C -2.1 °C 1013.4 hPa Calm   3.2 km/h 37% 0 mm
20:50 12.1 °C -0.4 °C 1013.1 hPa Calm   3.2 km/h 42% 0 mm
20:55 11.8 °C -2.1 °C 1013.1 hPa Calm     38% 0 mm
21:00 11.8 °C -2.4 °C 1013.1 hPa Calm   1.6 km/h 37% 0 mm
21:10 11.6 °C -0.9 °C 1013.1 hPa Calm   1.6 km/h 42% 0 mm
21:15 11.6 °C -0.2 °C 1012.8 hPa Calm     44% 0 mm
21:20 11.6 °C 0.6 °C 1012.8 hPa Calm     47% 0 mm
21:25 11.4 °C 1.4 °C 1012.8 hPa Calm     50% 0 mm
21:30 11.3 °C -0.2 °C 1012.8 hPa Calm   1.6 km/h 45% 0 mm
21:35 11.2 °C 0.3 °C 1012.8 hPa West 1.6 km/h 6.4 km/h 47% 0 mm
21:45 11.2 °C -0.9 °C 1012.8 hPa Calm   4.8 km/h 43% 0 mm
21:50 11.2 °C -0.9 °C 1012.8 hPa Calm     43% 0 mm
22:00 11.2 °C -0.6 °C 1012.4 hPa Calm     44% 0 mm
22:05 11.1 °C -0.7 °C 1012.8 hPa Calm     44% 0 mm
22:10 11 °C -0.5 °C 1012.8 hPa Calm     45% 0 mm
22:15 10.9 °C -0.6 °C 1012.8 hPa Calm     45% 0 mm
22:20 10.9 °C 0.9 °C 1012.8 hPa Calm     50% 0 mm
22:25 10.9 °C -1.2 °C 1012.4 hPa West 1.6 km/h 3.2 km/h 43% 0 mm
22:30 11.1 °C -1.4 °C 1012.4 hPa Calm   3.2 km/h 42% 0 mm
22:35 11.2 °C 1.2 °C 1012.4 hPa Calm   1.6 km/h 50% 0 mm
22:40 11.1 °C 1.6 °C 1012.8 hPa Calm     52% 0 mm
22:45 10.9 °C 0.7 °C 1012.8 hPa Calm     49% 0 mm
22:50 10.8 °C 1.1 °C 1012.8 hPa Calm     51% 0 mm
22:55 10.7 °C 0.9 °C 1012.8 hPa Calm     51% 0 mm
23:00 10.7 °C 0.1 °C 1012.8 hPa Calm     48% 0 mm
23:05 10.8 °C -0.7 °C 1012.4 hPa Calm     45% 0 mm
23:10 10.8 °C 0.6 °C 1012.8 hPa Calm     49% 0 mm
23:15 10.9 °C 0.3 °C 1012.4 hPa Calm     48% 0 mm
23:25 10.8 °C 1.4 °C 1012.4 hPa Calm     52% 0 mm
23:30 10.8 °C 1.6 °C 1012.4 hPa Calm     53% 0 mm
23:35 10.8 °C 0.5 °C 1012.4 hPa Calm     49% 0 mm
23:45 10.9 °C -1.2 °C 1012.4 hPa Calm     43% 0 mm
23:55 11.5 °C -1.3 °C 1012.1 hPa SSW 1.6 km/h 6.4 km/h 41% 0 mm
Westford Weather
Compliments of Weather Underground

 
 
Current Radar Loop:

Copyright © WestfordWeather.net 2007-2014. All rights reserved.